Decoded Metar for GCLP (LAS PALMAS in SPAIN) (IATA:LPA) | Meteo·Mobile Aviation Weather
aviador You're here:

GCLP Decoded Metar

LAS PALMAS in SPAIN
Report Time2019-10-19 21:30:00
UTC Time2019-10-19 21:51:07
Flight Rules vfr VFR
Wind360° at 15 kt
W.Decomp.*RWY 03: 13.6 kt HW 6.3 kt LCW
Visibility9999 m
Phenomena:N/A
Clouds:Few 025 Hf
Expected CloudBase > 2,400 ft AGL from Temp-Dew spread
CeilingNone
Temp23°C (ISA +8)
Dew Point17°C (69% RH)
AAT20.0°C
QNH1016 hPa
Density Alt1,188 ft
Elevation82 ft
Report Wrong Elevation
Raw Report
GCLP 192130Z 36015KT 9999 FEW025 23/17 Q1016 NOSIG=

Extra information for GCLP:More info

Metar Taf Metar & Taf Last 4 Metars F.Rules Stats Wind Profile Meteogram Temp Stats Airport Information Weather charts Add Link Nearby VenuesMetar ALERT Operation Metar Decoded Social comments